Time;durP1;ratioP1;P1;durP2;ratioP2;P2;SDS_P1;SDS_P2;PMS_P1;PMS_P2;Temp;Humidity;BMP_temperature;BMP_pressure;BME280_temperature;BME280_humidity;BME280_pressure;Samples;Min_cycle;Max_cycle;Signal;HPM_P1;HPM_P2
2024/02/24 00:00:01;;;;;;;3.83;1.50;;;;;;;;;;700636;28;1196;-63
2024/02/24 00:00:21;;;;;;;2.50;1.37;;;;;;;;;;703075;28;919;-63
2024/02/24 00:00:41;;;;;;;3.30;1.33;;;;;;;;;;699295;28;2147;-63
2024/02/24 00:01:02;;;;;;;4.97;1.33;;;;;;;;;;703488;28;862;-63
2024/02/24 00:01:22;;;;;;;4.05;1.42;;;;;;;;;;704252;27;4389;-64
2024/02/24 00:01:43;;;;;;;3.73;1.50;;;;;;;;;;704575;27;1951;-64
2024/02/24 00:02:03;;;;;;;3.27;1.50;;;;;;;;;;704558;27;738;-64
2024/02/24 00:02:23;;;;;;;3.40;1.50;;;;;;;;;;704925;27;920;-64
2024/02/24 00:02:43;;;;;;;3.83;1.43;;;;;;;;;;702657;28;1776;-64
2024/02/24 00:03:04;;;;;;;3.53;1.50;;;;;;;;;;701782;28;1121;-63
2024/02/24 00:03:24;;;;;;;4.43;1.60;;;;;;;;;;700054;28;904;-63
2024/02/24 00:03:44;;;;;;;3.30;1.57;;;;;;;;;;697288;28;2426;-63
2024/02/24 00:04:04;;;;;;;3.07;1.40;;;;;;;;;;699515;28;904;-63
2024/02/24 00:04:24;;;;;;;3.47;1.40;;;;;;;;;;696001;28;4342;-64
2024/02/24 00:04:45;;;;;;;3.25;1.38;;;;;;;;;;695461;28;2616;-63
2024/02/24 00:05:05;;;;;;;2.53;1.30;;;;;;;;;;701594;27;896;-63
2024/02/24 00:05:26;;;;;;;3.17;1.20;;;;;;;;;;703470;27;819;-64
2024/02/24 00:05:47;;;;;;;2.75;1.17;;;;;;;;;;702123;28;1675;-64
2024/02/24 00:06:07;;;;;;;3.37;1.30;;;;;;;;;;704625;27;805;-64
2024/02/24 00:06:27;;;;;;;3.20;1.37;;;;;;;;;;703598;27;1003;-64
2024/02/24 00:06:48;;;;;;;3.37;1.47;;;;;;;;;;700703;27;931;-63
2024/02/24 00:07:08;;;;;;;3.33;1.33;;;;;;;;;;703871;27;856;-65
2024/02/24 00:07:28;;;;;;;3.30;1.30;;;;;;;;;;702554;28;4583;-64
2024/02/24 00:07:48;;;;;;;3.80;1.30;;;;;;;;;;696358;28;1891;-65
2024/02/24 00:08:09;;;;;;;3.93;1.60;;;;;;;;;;698197;28;1339;-64
2024/02/24 00:08:29;;;;;;;3.33;1.50;;;;;;;;;;699536;28;925;-64
2024/02/24 00:08:49;;;;;;;3.15;1.50;;;;;;;;;;697721;28;1845;-64
2024/02/24 00:09:09;;;;;;;3.97;1.50;;;;;;;;;;699603;28;967;-66
2024/02/24 00:09:30;;;;;;;3.03;1.40;;;;;;;;;;699313;28;1190;-64
2024/02/24 00:09:50;;;;;;;2.13;1.30;;;;;;;;;;696332;28;1369;-65
2024/02/24 00:10:10;;;;;;;2.70;1.20;;;;;;;;;;700142;28;924;-64
2024/02/24 00:10:31;;;;;;;3.50;1.40;;;;;;;;;;701051;28;4404;-65
2024/02/24 00:10:51;;;;;;;3.80;1.35;;;;;;;;;;701566;28;825;-64
2024/02/24 00:11:11;;;;;;;3.90;1.20;;;;;;;;;;701034;28;1268;-65
2024/02/24 00:11:32;;;;;;;3.90;1.23;;;;;;;;;;698257;28;1805;-65
2024/02/24 00:11:52;;;;;;;3.00;1.30;;;;;;;;;;700659;28;802;-64
2024/02/24 00:12:13;;;;;;;3.13;1.40;;;;;;;;;;698395;28;1205;-64
2024/02/24 00:12:33;;;;;;;3.03;1.33;;;;;;;;;;696302;28;2230;-65
2024/02/24 00:12:53;;;;;;;4.20;1.40;;;;;;;;;;698002;28;1222;-64
2024/02/24 00:13:14;;;;;;;4.17;1.57;;;;;;;;;;698401;28;1041;-64
2024/02/24 00:13:34;;;;;;;2.87;1.53;;;;;;;;;;697137;28;4807;-64
2024/02/24 00:13:54;;;;;;;3.45;1.60;;;;;;;;;;701461;27;904;-64
2024/02/24 00:14:15;;;;;;;3.73;1.43;;;;;;;;;;702739;27;757;-65
2024/02/24 00:14:35;;;;;;;3.53;1.50;;;;;;;;;;702263;27;1799;-63
2024/02/24 00:14:55;;;;;;;3.30;1.40;;;;;;;;;;703922;27;996;-65
2024/02/24 00:15:15;;;;;;;3.10;1.30;;;;;;;;;;705065;27;825;-65
2024/02/24 00:15:36;;;;;;;3.40;1.40;;;;;;;;;;703672;27;1540;-63
2024/02/24 00:15:56;;;;;;;2.80;1.30;;;;;;;;;;703863;28;1194;-64
2024/02/24 00:16:16;;;;;;;3.20;1.50;;;;;;;;;;704732;27;4380;-63
2024/02/24 00:16:37;;;;;;;3.17;1.27;;;;;;;;;;702291;27;1918;-63
2024/02/24 00:16:57;;;;;;;3.25;1.35;;;;;;;;;;705709;27;884;-64
2024/02/24 00:17:17;;;;;;;3.17;1.30;;;;;;;;;;703744;27;800;-64
2024/02/24 00:17:40;;;;;;;2.93;1.20;;;;;;;;;;701737;27;1909;-63
2024/02/24 00:18:02;;;;;;;2.88;1.20;;;;;;;;;;704069;27;916;-66
2024/02/24 00:18:22;;;;;;;3.45;1.20;;;;;;;;;;703310;27;1266;-64
2024/02/24 00:18:42;;;;;;;3.72;1.40;;;;;;;;;;702276;28;2455;-63
2024/02/24 00:19:03;;;;;;;2.77;1.30;;;;;;;;;;701948;28;908;-63
2024/02/24 00:19:23;;;;;;;2.77;1.30;;;;;;;;;;700970;28;4348;-63
2024/02/24 00:19:43;;;;;;;2.73;1.17;;;;;;;;;;700426;28;1710;-64
2024/02/24 00:20:03;;;;;;;2.63;1.20;;;;;;;;;;701389;28;1081;-64
2024/02/24 00:20:24;;;;;;;2.90;1.30;;;;;;;;;;702066;28;904;-64
2024/02/24 00:20:44;;;;;;;2.30;1.10;;;;;;;;;;699890;27;1757;-65
2024/02/24 00:21:04;;;;;;;2.80;1.17;;;;;;;;;;704279;28;864;-64
2024/02/24 00:21:28;;;;;;;2.87;1.20;;;;;;;;;;704830;27;836;-64
2024/02/24 00:21:48;;;;;;;2.92;1.20;;;;;;;;;;702515;27;1963;-64
2024/02/24 00:22:08;;;;;;;2.87;1.30;;;;;;;;;;701298;28;908;-63
2024/02/24 00:22:28;;;;;;;3.17;1.40;;;;;;;;;;700364;28;4364;-64
2024/02/24 00:22:48;;;;;;;2.90;1.30;;;;;;;;;;700324;28;4538;-64
2024/02/24 00:23:09;;;;;;;3.25;1.40;;;;;;;;;;702608;28;1293;-63
2024/02/24 00:23:29;;;;;;;3.60;1.40;;;;;;;;;;701612;28;1454;-63
2024/02/24 00:23:50;;;;;;;3.65;1.33;;;;;;;;;;698990;28;2381;-64
2024/02/24 00:24:10;;;;;;;3.73;1.50;;;;;;;;;;704399;28;1217;-64
2024/02/24 00:24:30;;;;;;;3.22;1.40;;;;;;;;;;705526;27;908;-64
2024/02/24 00:24:50;;;;;;;3.37;1.50;;;;;;;;;;704555;27;2327;-63
2024/02/24 00:25:11;;;;;;;2.97;1.30;;;;;;;;;;704671;27;1690;-63
2024/02/24 00:25:32;;;;;;;3.27;1.47;;;;;;;;;;704974;27;4492;-64
2024/02/24 00:25:52;;;;;;;3.33;1.48;;;;;;;;;;702833;28;2317;-63
2024/02/24 00:26:12;;;;;;;3.17;1.50;;;;;;;;;;705850;27;1084;-64
2024/02/24 00:26:33;;;;;;;3.50;1.40;;;;;;;;;;700598;28;890;-63
2024/02/24 00:26:53;;;;;;;3.57;1.40;;;;;;;;;;701709;28;1350;-63
2024/02/24 00:27:14;;;;;;;3.40;1.30;;;;;;;;;;701315;28;1297;-65
2024/02/24 00:27:34;;;;;;;3.75;1.50;;;;;;;;;;700651;28;1948;-63
2024/02/24 00:27:55;;;;;;;2.90;1.40;;;;;;;;;;700807;28;892;-64
2024/02/24 00:28:15;;;;;;;2.53;1.20;;;;;;;;;;703010;27;797;-63
2024/02/24 00:28:35;;;;;;;2.90;1.40;;;;;;;;;;702232;27;4202;-64
2024/02/24 00:28:55;;;;;;;3.37;1.40;;;;;;;;;;704457;27;1190;-63
2024/02/24 00:29:16;;;;;;;3.40;1.30;;;;;;;;;;704615;27;881;-64
2024/02/24 00:29:36;;;;;;;3.17;1.30;;;;;;;;;;699752;28;1493;-64
2024/02/24 00:29:56;;;;;;;3.50;1.60;;;;;;;;;;700871;28;1042;-64
2024/02/24 00:30:17;;;;;;;3.30;1.50;;;;;;;;;;701117;28;1354;-64
2024/02/24 00:30:38;;;;;;;3.92;1.50;;;;;;;;;;698876;28;5029;-64
2024/02/24 00:30:58;;;;;;;3.50;1.40;;;;;;;;;;701427;28;872;-63
2024/02/24 00:31:18;;;;;;;2.95;1.40;;;;;;;;;;700764;28;5245;-63
2024/02/24 00:31:40;;;;;;;3.33;1.60;;;;;;;;;;703521;27;1484;-63
2024/02/24 00:32:00;;;;;;;3.70;1.40;;;;;;;;;;699219;28;1245;-62
2024/02/24 00:32:21;;;;;;;3.47;1.30;;;;;;;;;;701802;28;892;-62
2024/02/24 00:32:41;;;;;;;3.28;1.30;;;;;;;;;;698534;28;896;-63
2024/02/24 00:33:01;;;;;;;3.17;1.30;;;;;;;;;;700752;28;1039;-63
2024/02/24 00:33:22;;;;;;;3.17;1.30;;;;;;;;;;701662;28;904;-63
2024/02/24 00:33:42;;;;;;;3.55;1.17;;;;;;;;;;700467;28;1760;-63
2024/02/24 00:34:02;;;;;;;3.53;1.27;;;;;;;;;;703022;27;1033;-63
2024/02/24 00:34:22;;;;;;;2.97;1.30;;;;;;;;;;704568;27;4495;-64
2024/02/24 00:34:43;;;;;;;2.65;1.25;;;;;;;;;;700456;28;2403;-64
2024/02/24 00:35:04;;;;;;;2.77;1.30;;;;;;;;;;701504;28;1060;-63
2024/02/24 00:35:28;;;;;;;2.50;1.35;;;;;;;;;;701429;28;1023;-62
2024/02/24 00:35:48;;;;;;;3.60;1.60;;;;;;;;;;699689;28;2257;-62
2024/02/24 00:36:08;;;;;;;4.07;1.57;;;;;;;;;;700958;28;1025;-63
2024/02/24 00:36:28;;;;;;;4.20;1.70;;;;;;;;;;702338;28;826;-63
2024/02/24 00:36:49;;;;;;;3.80;1.50;;;;;;;;;;700488;28;2409;-63
2024/02/24 00:37:09;;;;;;;4.20;1.30;;;;;;;;;;704104;27;1269;-63
2024/02/24 00:37:29;;;;;;;4.07;1.40;;;;;;;;;;703567;27;4598;-63
2024/02/24 00:37:49;;;;;;;3.27;1.30;;;;;;;;;;701876;27;2717;-63
2024/02/24 00:38:10;;;;;;;4.13;1.20;;;;;;;;;;703033;27;918;-63
2024/02/24 00:38:30;;;;;;;2.95;1.27;;;;;;;;;;704253;27;935;-62
2024/02/24 00:38:50;;;;;;;3.03;1.30;;;;;;;;;;702711;27;2328;-63
2024/02/24 00:39:10;;;;;;;2.63;1.30;;;;;;;;;;700509;28;1080;-63
2024/02/24 00:39:31;;;;;;;3.67;1.43;;;;;;;;;;702842;28;1262;-64
2024/02/24 00:39:51;;;;;;;3.43;1.50;;;;;;;;;;701289;28;1849;-64
2024/02/24 00:40:11;;;;;;;2.90;1.40;;;;;;;;;;702409;28;1153;-64
2024/02/24 00:40:31;;;;;;;4.05;1.50;;;;;;;;;;699602;28;4317;-64
2024/02/24 00:40:52;;;;;;;3.37;1.40;;;;;;;;;;697824;28;1756;-62
2024/02/24 00:41:13;;;;;;;2.67;1.27;;;;;;;;;;701763;28;808;-63
2024/02/24 00:41:33;;;;;;;3.20;1.30;;;;;;;;;;701716;28;907;-63
2024/02/24 00:41:53;;;;;;;2.43;1.20;;;;;;;;;;699852;28;1967;-63
2024/02/24 00:42:13;;;;;;;3.00;1.38;;;;;;;;;;703221;28;1488;-63
2024/02/24 00:42:34;;;;;;;3.13;1.30;;;;;;;;;;704983;27;1029;-63
2024/02/24 00:42:54;;;;;;;3.37;1.30;;;;;;;;;;700552;28;2380;-63
2024/02/24 00:43:14;;;;;;;3.65;1.45;;;;;;;;;;702612;28;943;-63
2024/02/24 00:43:34;;;;;;;3.23;1.40;;;;;;;;;;698981;28;4342;-63
2024/02/24 00:43:55;;;;;;;3.60;1.30;;;;;;;;;;702726;28;826;-63
2024/02/24 00:44:15;;;;;;;2.90;1.30;;;;;;;;;;700153;28;1042;-64
2024/02/24 00:44:35;;;;;;;2.57;1.30;;;;;;;;;;699827;28;1027;-64
2024/02/24 00:44:55;;;;;;;3.27;1.40;;;;;;;;;;703727;28;920;-63
2024/02/24 00:45:16;;;;;;;3.03;1.37;;;;;;;;;;701862;28;1059;-63
2024/02/24 00:45:36;;;;;;;3.30;1.40;;;;;;;;;;701239;28;3971;-63
2024/02/24 00:45:56;;;;;;;3.77;1.63;;;;;;;;;;701350;28;4364;-63
2024/02/24 00:46:16;;;;;;;3.43;1.67;;;;;;;;;;701720;28;4279;-63
2024/02/24 00:46:37;;;;;;;3.80;1.60;;;;;;;;;;700279;28;1956;-64
2024/02/24 00:46:58;;;;;;;3.22;1.45;;;;;;;;;;701369;28;1345;-64
2024/02/24 00:47:18;;;;;;;2.63;1.27;;;;;;;;;;700961;28;1178;-63
2024/02/24 00:47:38;;;;;;;2.60;1.23;;;;;;;;;;699502;28;1855;-64
2024/02/24 00:47:58;;;;;;;2.80;1.33;;;;;;;;;;701690;28;913;-63
2024/02/24 00:48:19;;;;;;;3.80;1.50;;;;;;;;;;702206;28;861;-64
2024/02/24 00:48:40;;;;;;;3.45;1.33;;;;;;;;;;700341;28;2390;-64
2024/02/24 00:49:01;;;;;;;3.47;1.30;;;;;;;;;;700173;28;893;-64
2024/02/24 00:49:21;;;;;;;4.68;1.52;;;;;;;;;;703789;27;4482;-64
2024/02/24 00:49:41;;;;;;;3.10;1.30;;;;;;;;;;704046;27;2429;-63
2024/02/24 00:50:02;;;;;;;1.83;1.20;;;;;;;;;;704599;27;876;-64
2024/02/24 00:50:28;;;;;;;2.40;1.30;;;;;;;;;;704126;28;1030;-63
2024/02/24 00:50:48;;;;;;;2.78;1.52;;;;;;;;;;702008;28;1715;-64
2024/02/24 00:51:08;;;;;;;3.33;1.67;;;;;;;;;;705662;27;1280;-64
2024/02/24 00:51:29;;;;;;;4.13;1.40;;;;;;;;;;700455;28;1591;-63
2024/02/24 00:51:49;;;;;;;3.13;1.33;;;;;;;;;;699980;28;2235;-64
2024/02/24 00:52:09;;;;;;;2.83;1.40;;;;;;;;;;702521;28;924;-63
2024/02/24 00:52:31;;;;;;;3.77;1.30;;;;;;;;;;700279;28;4457;-64
2024/02/24 00:52:51;;;;;;;3.00;1.40;;;;;;;;;;697687;28;1748;-63
2024/02/24 00:53:11;;;;;;;3.50;1.40;;;;;;;;;;701793;28;1261;-64
2024/02/24 00:53:32;;;;;;;2.70;1.30;;;;;;;;;;698516;28;845;-63
2024/02/24 00:53:52;;;;;;;3.63;1.43;;;;;;;;;;697241;28;3013;-64
2024/02/24 00:54:12;;;;;;;3.67;1.50;;;;;;;;;;698464;28;999;-64
2024/02/24 00:54:32;;;;;;;2.87;1.33;;;;;;;;;;701542;28;1021;-63
2024/02/24 00:54:53;;;;;;;2.27;1.30;;;;;;;;;;699710;28;1697;-63
2024/02/24 00:55:13;;;;;;;3.05;1.30;;;;;;;;;;699332;28;1140;-64
2024/02/24 00:55:33;;;;;;;3.57;1.50;;;;;;;;;;700562;28;4434;-64
2024/02/24 00:55:53;;;;;;;3.70;1.60;;;;;;;;;;699838;28;2206;-64
2024/02/24 00:56:14;;;;;;;3.78;1.50;;;;;;;;;;701028;28;1092;-64
2024/02/24 00:56:35;;;;;;;3.13;1.40;;;;;;;;;;701848;28;1605;-65
2024/02/24 00:56:55;;;;;;;2.72;1.35;;;;;;;;;;699955;28;1707;-65
2024/02/24 00:57:15;;;;;;;2.65;1.30;;;;;;;;;;699688;28;952;-64
2024/02/24 00:57:36;;;;;;;2.67;1.47;;;;;;;;;;700474;28;2312;-64
2024/02/24 00:57:56;;;;;;;3.40;1.40;;;;;;;;;;701653;28;1056;-64
2024/02/24 00:58:16;;;;;;;3.47;1.40;;;;;;;;;;700445;28;4849;-65
2024/02/24 00:58:37;;;;;;;2.90;1.40;;;;;;;;;;704150;27;2456;-64
2024/02/24 00:58:57;;;;;;;3.03;1.50;;;;;;;;;;704362;27;813;-64
2024/02/24 00:59:17;;;;;;;3.40;1.30;;;;;;;;;;702787;28;4008;-65
2024/02/24 00:59:37;;;;;;;3.50;1.30;;;;;;;;;;702304;27;1542;-65
2024/02/24 00:59:58;;;;;;;3.40;1.20;;;;;;;;;;704295;27;979;-63
2024/02/24 01:00:18;;;;;;;3.53;1.23;;;;;;;;;;703277;28;872;-65
2024/02/24 01:00:38;;;;;;;3.28;1.20;;;;;;;;;;702988;28;2488;-65
2024/02/24 01:00:58;;;;;;;3.27;1.50;;;;;;;;;;701156;28;880;-64
2024/02/24 01:01:19;;;;;;;4.27;1.80;;;;;;;;;;698444;28;4595;-64
2024/02/24 01:01:39;;;;;;;3.60;1.40;;;;;;;;;;700969;28;976;-65
2024/02/24 01:01:59;;;;;;;2.97;1.30;;;;;;;;;;702503;28;912;-64
2024/02/24 01:02:20;;;;;;;3.73;1.40;;;;;;;;;;701622;28;856;-66
2024/02/24 01:02:40;;;;;;;3.23;1.43;;;;;;;;;;699496;28;2156;-65
2024/02/24 01:03:01;;;;;;;2.60;1.30;;;;;;;;;;704934;27;1277;-65
2024/02/24 01:03:21;;;;;;;2.40;1.30;;;;;;;;;;705216;27;880;-65
2024/02/24 01:03:41;;;;;;;3.05;1.20;;;;;;;;;;700926;27;2792;-63
2024/02/24 01:04:02;;;;;;;3.30;1.20;;;;;;;;;;703936;27;860;-63
2024/02/24 01:04:22;;;;;;;2.88;1.27;;;;;;;;;;703984;27;4353;-63
2024/02/24 01:04:43;;;;;;;2.57;1.20;;;;;;;;;;699132;28;1790;-63
2024/02/24 01:05:03;;;;;;;2.03;1.20;;;;;;;;;;701222;28;968;-63
2024/02/24 01:05:23;;;;;;;2.38;1.20;;;;;;;;;;700663;28;1168;-63
2024/02/24 01:05:44;;;;;;;2.53;1.17;;;;;;;;;;699922;28;1505;-63
2024/02/24 01:06:04;;;;;;;3.28;1.40;;;;;;;;;;701168;28;1300;-63
2024/02/24 01:06:25;;;;;;;4.13;1.43;;;;;;;;;;702333;28;915;-64
2024/02/24 01:06:45;;;;;;;2.97;1.40;;;;;;;;;;701646;28;2433;-64
2024/02/24 01:07:06;;;;;;;2.53;1.23;;;;;;;;;;705902;27;898;-63
2024/02/24 01:07:26;;;;;;;2.70;1.30;;;;;;;;;;702962;27;4375;-64
2024/02/24 01:07:47;;;;;;;2.38;1.17;;;;;;;;;;703497;27;1019;-64
2024/02/24 01:08:07;;;;;;;2.43;1.37;;;;;;;;;;704503;27;1277;-63
2024/02/24 01:08:28;;;;;;;2.63;1.50;;;;;;;;;;705551;27;843;-64
2024/02/24 01:08:48;;;;;;;2.90;1.30;;;;;;;;;;701527;28;1488;-63
2024/02/24 01:09:08;;;;;;;2.33;1.30;;;;;;;;;;698128;28;872;-63
2024/02/24 01:09:28;;;;;;;2.67;1.30;;;;;;;;;;698543;28;1108;-64
2024/02/24 01:09:49;;;;;;;2.43;1.30;;;;;;;;;;696719;28;2319;-65
2024/02/24 01:10:09;;;;;;;1.90;1.20;;;;;;;;;;696380;28;956;-62
2024/02/24 01:10:30;;;;;;;2.42;1.30;;;;;;;;;;698113;28;4334;-64
2024/02/24 01:10:50;;;;;;;2.60;1.50;;;;;;;;;;697642;28;1154;-64
2024/02/24 01:11:10;;;;;;;2.63;1.40;;;;;;;;;;702637;28;837;-64
2024/02/24 01:11:31;;;;;;;3.07;1.40;;;;;;;;;;704238;28;1700;-65
2024/02/24 01:11:51;;;;;;;3.40;1.40;;;;;;;;;;702815;28;1730;-65
2024/02/24 01:12:12;;;;;;;3.50;1.30;;;;;;;;;;704350;27;935;-64
2024/02/24 01:12:32;;;;;;;2.70;1.30;;;;;;;;;;702600;27;1269;-65
2024/02/24 01:12:52;;;;;;;2.27;1.20;;;;;;;;;;702652;27;1044;-64
2024/02/24 01:13:12;;;;;;;2.50;1.17;;;;;;;;;;703170;28;947;-64
2024/02/24 01:13:33;;;;;;;2.90;1.27;;;;;;;;;;702758;27;4566;-64
2024/02/24 01:13:54;;;;;;;2.10;1.10;;;;;;;;;;700172;27;2061;-64
2024/02/24 01:14:14;;;;;;;3.25;1.10;;;;;;;;;;704274;27;1384;-64
2024/02/24 01:14:34;;;;;;;3.33;1.10;;;;;;;;;;702816;27;895;-64
2024/02/24 01:14:55;;;;;;;3.17;1.45;;;;;;;;;;702748;27;1770;-65
2024/02/24 01:15:15;;;;;;;2.63;1.43;;;;;;;;;;704369;27;1173;-64
2024/02/24 01:15:35;;;;;;;2.28;1.27;;;;;;;;;;701613;28;1277;-69
2024/02/24 01:15:55;;;;;;;2.50;1.13;;;;;;;;;;704040;27;2406;-66
2024/02/24 01:16:16;;;;;;;2.87;1.30;;;;;;;;;;704348;27;4352;-64
2024/02/24 01:16:37;;;;;;;2.75;1.30;;;;;;;;;;702844;27;1199;-63
2024/02/24 01:16:57;;;;;;;2.67;1.20;;;;;;;;;;704561;27;900;-63
2024/02/24 01:17:18;;;;;;;2.70;1.30;;;;;;;;;;703009;28;1242;-64
2024/02/24 01:17:39;;;;;;;1.95;1.10;;;;;;;;;;702164;27;1957;-63
2024/02/24 01:17:59;;;;;;;1.83;1.10;;;;;;;;;;700854;28;931;-62
2024/02/24 01:18:22;;;;;;;2.27;1.10;;;;;;;;;;698079;28;1133;-63
2024/02/24 01:18:42;;;;;;;2.75;1.20;;;;;;;;;;696828;28;2543;-62
2024/02/24 01:19:02;;;;;;;2.97;1.30;;;;;;;;;;697112;28;2517;-64
2024/02/24 01:19:23;;;;;;;2.85;1.20;;;;;;;;;;697559;28;4283;-64
2024/02/24 01:19:43;;;;;;;2.47;1.20;;;;;;;;;;697727;28;1896;-64
2024/02/24 01:20:03;;;;;;;2.07;1.10;;;;;;;;;;699741;28;876;-64
2024/02/24 01:20:24;;;;;;;2.45;1.10;;;;;;;;;;699620;28;1120;-64
2024/02/24 01:20:48;;;;;;;3.15;1.30;;;;;;;;;;700064;28;2600;-64
2024/02/24 01:21:08;;;;;;;3.58;1.40;;;;;;;;;;703786;28;1041;-63
2024/02/24 01:21:28;;;;;;;2.90;1.40;;;;;;;;;;701540;28;1115;-64
2024/02/24 01:21:48;;;;;;;2.83;1.10;;;;;;;;;;702116;27;1758;-64
2024/02/24 01:22:09;;;;;;;2.47;1.10;;;;;;;;;;704178;28;1380;-64
2024/02/24 01:22:29;;;;;;;2.43;1.27;;;;;;;;;;703797;27;4499;-64
2024/02/24 01:22:53;;;;;;;3.50;1.20;;;;;;;;;;703205;27;2197;-64
2024/02/24 01:23:14;;;;;;;2.67;1.10;;;;;;;;;;704338;27;1219;-64
2024/02/24 01:23:34;;;;;;;2.25;1.13;;;;;;;;;;704298;27;966;-64
2024/02/24 01:23:54;;;;;;;2.67;1.17;;;;;;;;;;703004;27;1474;-64
2024/02/24 01:24:15;;;;;;;4.00;1.27;;;;;;;;;;703504;27;896;-64
2024/02/24 01:24:35;;;;;;;3.17;1.10;;;;;;;;;;703943;28;950;-63
2024/02/24 01:24:55;;;;;;;2.60;1.10;;;;;;;;;;702174;27;1587;-63
2024/02/24 01:25:15;;;;;;;2.50;1.20;;;;;;;;;;704397;27;4285;-63
2024/02/24 01:25:36;;;;;;;2.57;1.20;;;;;;;;;;702413;28;1284;-63
2024/02/24 01:25:56;;;;;;;3.03;1.30;;;;;;;;;;702496;27;967;-63
2024/02/24 01:26:16;;;;;;;3.00;1.20;;;;;;;;;;703264;28;943;-63
2024/02/24 01:26:36;;;;;;;2.60;1.00;;;;;;;;;;700628;28;953;-63
2024/02/24 01:26:57;;;;;;;2.53;1.03;;;;;;;;;;699277;28;3341;-63
2024/02/24 01:27:17;;;;;;;1.90;1.10;;;;;;;;;;701886;28;864;-63
2024/02/24 01:27:37;;;;;;;3.20;1.15;;;;;;;;;;699167;28;1720;-62
2024/02/24 01:27:57;;;;;;;2.67;1.10;;;;;;;;;;697571;28;1703;-63
2024/02/24 01:28:18;;;;;;;2.13;1.00;;;;;;;;;;698151;28;4418;-62
2024/02/24 01:28:38;;;;;;;2.30;1.00;;;;;;;;;;701150;28;1316;-64
2024/02/24 01:28:59;;;;;;;2.07;1.00;;;;;;;;;;700562;28;1658;-62
2024/02/24 01:29:19;;;;;;;2.30;1.10;;;;;;;;;;701429;28;1026;-64
2024/02/24 01:29:39;;;;;;;2.20;1.10;;;;;;;;;;703335;27;1595;-63
2024/02/24 01:29:59;;;;;;;1.80;1.20;;;;;;;;;;704711;27;1077;-63
2024/02/24 01:30:19;;;;;;;2.03;1.07;;;;;;;;;;702744;27;1305;-63
2024/02/24 01:30:40;;;;;;;2.10;1.10;;;;;;;;;;703063;27;1345;-63
2024/02/24 01:31:00;;;;;;;2.20;1.20;;;;;;;;;;704170;27;911;-64
2024/02/24 01:31:20;;;;;;;3.00;1.30;;;;;;;;;;705698;27;4632;-62
2024/02/24 01:31:41;;;;;;;2.45;1.00;;;;;;;;;;702571;27;2666;-63
2024/02/24 01:32:01;;;;;;;2.17;1.10;;;;;;;;;;703361;27;1260;-63
2024/02/24 01:32:21;;;;;;;1.93;1.00;;;;;;;;;;702210;28;765;-63
2024/02/24 01:32:41;;;;;;;1.80;0.93;;;;;;;;;;699514;28;2521;-64
2024/02/24 01:33:02;;;;;;;2.47;1.10;;;;;;;;;;701270;28;924;-64
2024/02/24 01:33:23;;;;;;;2.63;1.10;;;;;;;;;;702063;28;1218;-64
2024/02/24 01:33:43;;;;;;;1.90;1.00;;;;;;;;;;698936;28;1934;-63
2024/02/24 01:34:03;;;;;;;2.03;1.00;;;;;;;;;;701128;28;1265;-64
2024/02/24 01:34:23;;;;;;;2.27;1.00;;;;;;;;;;705113;27;4397;-64
2024/02/24 01:34:43;;;;;;;2.90;1.07;;;;;;;;;;703684;27;1087;-63
2024/02/24 01:35:07;;;;;;;2.22;1.05;;;;;;;;;;704538;27;860;-63
2024/02/24 01:35:27;;;;;;;2.10;1.10;;;;;;;;;;704271;27;1123;-63
2024/02/24 01:35:48;;;;;;;2.50;1.20;;;;;;;;;;702078;27;2341;-64
2024/02/24 01:36:08;;;;;;;2.60;1.10;;;;;;;;;;704289;27;741;-63
2024/02/24 01:36:28;;;;;;;2.30;1.00;;;;;;;;;;704657;28;959;-63
2024/02/24 01:36:48;;;;;;;1.77;1.00;;;;;;;;;;703200;27;1795;-64
2024/02/24 01:37:09;;;;;;;2.13;0.90;;;;;;;;;;703405;27;1269;-64
2024/02/24 01:37:29;;;;;;;1.63;0.80;;;;;;;;;;703403;27;4328;-64
2024/02/24 01:37:49;;;;;;;1.77;0.97;;;;;;;;;;704326;27;1960;-64
2024/02/24 01:38:10;;;;;;;2.22;1.00;;;;;;;;;;700180;28;1341;-63
2024/02/24 01:38:30;;;;;;;1.55;0.88;;;;;;;;;;702300;28;860;-64
2024/02/24 01:38:53;;;;;;;1.70;0.90;;;;;;;;;;700552;28;2439;-64
2024/02/24 01:39:13;;;;;;;1.85;1.02;;;;;;;;;;700168;28;1137;-63
2024/02/24 01:39:35;;;;;;;2.27;1.10;;;;;;;;;;698803;28;1272;-62
2024/02/24 01:39:55;;;;;;;2.17;0.93;;;;;;;;;;698427;28;1544;-61
2024/02/24 01:40:16;;;;;;;2.30;1.10;;;;;;;;;;702572;28;4360;-62
2024/02/24 01:40:36;;;;;;;2.03;0.90;;;;;;;;;;701255;28;1342;-63
2024/02/24 01:40:56;;;;;;;2.30;0.90;;;;;;;;;;699934;28;2397;-63
2024/02/24 01:41:17;;;;;;;2.30;1.10;;;;;;;;;;700584;28;862;-63
2024/02/24 01:41:37;;;;;;;2.40;1.35;;;;;;;;;;706162;27;966;-62
2024/02/24 01:41:58;;;;;;;2.47;1.10;;;;;;;;;;702768;27;3990;-62
2024/02/24 01:42:18;;;;;;;1.90;1.00;;;;;;;;;;704505;27;4989;-61
2024/02/24 01:42:41;;;;;;;1.87;1.00;;;;;;;;;;705040;27;1247;-63
2024/02/24 01:43:02;;;;;;;2.80;1.15;;;;;;;;;;704913;27;966;-63
2024/02/24 01:43:24;;;;;;;2.72;1.10;;;;;;;;;;704994;27;4323;-62
2024/02/24 01:43:44;;;;;;;2.63;0.98;;;;;;;;;;701649;28;1864;-63
2024/02/24 01:44:04;;;;;;;2.45;1.08;;;;;;;;;;702705;28;1005;-62
2024/02/24 01:44:25;;;;;;;1.97;1.03;;;;;;;;;;705568;27;872;-63
2024/02/24 01:44:45;;;;;;;1.80;0.93;;;;;;;;;;703313;27;1897;-62
2024/02/24 01:45:05;;;;;;;1.87;0.90;;;;;;;;;;703126;27;896;-62
2024/02/24 01:45:26;;;;;;;2.30;1.10;;;;;;;;;;704146;27;1399;-62
2024/02/24 01:45:46;;;;;;;2.30;1.10;;;;;;;;;;703105;27;2375;-63
2024/02/24 01:46:07;;;;;;;3.27;1.13;;;;;;;;;;699054;28;1362;-63
2024/02/24 01:46:28;;;;;;;2.90;1.10;;;;;;;;;;699404;28;4592;-63
2024/02/24 01:46:49;;;;;;;2.33;1.00;;;;;;;;;;697638;28;2191;-63
2024/02/24 01:47:09;;;;;;;3.25;1.20;;;;;;;;;;699066;28;956;-63
2024/02/24 01:47:29;;;;;;;2.87;1.20;;;;;;;;;;699248;28;1081;-64
2024/02/24 01:47:50;;;;;;;1.63;1.00;;;;;;;;;;696627;27;1678;-65
2024/02/24 01:48:10;;;;;;;1.80;1.00;;;;;;;;;;704231;27;809;-62
2024/02/24 01:48:32;;;;;;;1.73;0.90;;;;;;;;;;704901;27;1302;-63
2024/02/24 01:48:52;;;;;;;1.60;0.90;;;;;;;;;;699786;28;2058;-63
2024/02/24 01:49:13;;;;;;;1.93;1.00;;;;;;;;;;701583;28;1294;-63
2024/02/24 01:49:33;;;;;;;1.63;0.90;;;;;;;;;;699584;28;4267;-63
2024/02/24 01:49:54;;;;;;;2.17;0.97;;;;;;;;;;699004;28;1703;-63
2024/02/24 01:50:14;;;;;;;1.40;0.90;;;;;;;;;;699705;28;1365;-63
2024/02/24 01:50:38;;;;;;;2.40;1.00;;;;;;;;;;700098;28;983;-63
2024/02/24 01:50:59;;;;;;;2.15;1.05;;;;;;;;;;697850;28;1829;-63
2024/02/24 01:51:19;;;;;;;1.47;0.93;;;;;;;;;;697587;28;793;-63
2024/02/24 01:51:39;;;;;;;1.90;1.00;;;;;;;;;;701318;28;1469;-63
2024/02/24 01:52:00;;;;;;;2.40;1.00;;;;;;;;;;699413;28;1792;-63
2024/02/24 01:52:21;;;;;;;1.58;0.90;;;;;;;;;;698122;28;4548;-63
2024/02/24 01:52:45;;;;;;;1.60;0.90;;;;;;;;;;698239;28;2262;-63
2024/02/24 01:53:05;;;;;;;1.85;0.95;;;;;;;;;;701255;28;781;-63
2024/02/24 01:53:26;;;;;;;1.60;0.83;;;;;;;;;;701941;28;1159;-62
2024/02/24 01:53:47;;;;;;;2.10;0.90;;;;;;;;;;699207;28;1887;-62
2024/02/24 01:54:08;;;;;;;1.67;0.88;;;;;;;;;;703541;28;979;-63
2024/02/24 01:54:29;;;;;;;1.50;0.80;;;;;;;;;;705557;27;998;-62
2024/02/24 01:54:53;;;;;;;1.42;0.80;;;;;;;;;;704080;27;1811;-63
2024/02/24 01:55:13;;;;;;;3.03;0.90;;;;;;;;;;704067;27;1026;-63
2024/02/24 01:55:33;;;;;;;2.00;0.80;;;;;;;;;;699876;28;7469;-63
2024/02/24 01:55:54;;;;;;;2.40;1.00;;;;;;;;;;696971;28;2261;-62
2024/02/24 01:56:14;;;;;;;1.53;0.90;;;;;;;;;;697780;28;1328;-63
2024/02/24 01:56:35;;;;;;;1.80;0.90;;;;;;;;;;698439;28;1289;-63
2024/02/24 01:56:56;;;;;;;1.67;0.90;;;;;;;;;;697487;28;1702;-63
2024/02/24 01:57:16;;;;;;;1.55;0.80;;;;;;;;;;699048;28;872;-62
2024/02/24 01:57:40;;;;;;;1.90;0.80;;;;;;;;;;702037;27;2000;-63
2024/02/24 01:58:00;;;;;;;1.98;0.90;;;;;;;;;;697111;28;2334;-64
2024/02/24 01:58:21;;;;;;;1.97;0.80;;;;;;;;;;701722;28;4285;-64
2024/02/24 01:58:42;;;;;;;1.60;0.80;;;;;;;;;;701139;28;848;-63
2024/02/24 01:59:02;;;;;;;1.73;0.80;;;;;;;;;;699716;28;1043;-64
2024/02/24 01:59:23;;;;;;;1.90;0.90;;;;;;;;;;699929;28;1215;-63
2024/02/24 01:59:44;;;;;;;1.85;1.00;;;;;;;;;;699358;28;2276;-64
2024/02/24 02:00:04;;;;;;;1.40;0.90;;;;;;;;;;702438;28;1280;-64
2024/02/24 02:00:26;;;;;;;1.85;1.00;;;;;;;;;;704143;27;663;-63
2024/02/24 02:00:47;;;;;;;2.10;0.97;;;;;;;;;;701326;28;1443;-63
2024/02/24 02:01:07;;;;;;;1.77;0.90;;;;;;;;;;701235;28;1176;-64
2024/02/24 02:01:28;;;;;;;1.80;0.98;;;;;;;;;;700044;28;4311;-63
2024/02/24 02:01:50;;;;;;;2.53;1.00;;;;;;;;;;696191;28;1785;-63
2024/02/24 02:02:10;;;;;;;1.55;0.75;;;;;;;;;;698122;28;844;-62
2024/02/24 02:02:30;;;;;;;2.40;0.80;;;;;;;;;;698915;28;904;-62
2024/02/24 02:02:51;;;;;;;1.90;0.90;;;;;;;;;;697680;28;1055;-62
2024/02/24 02:03:11;;;;;;;1.88;0.95;;;;;;;;;;700776;28;2487;-63
2024/02/24 02:03:32;;;;;;;2.50;1.00;;;;;;;;;;700365;28;959;-63
2024/02/24 02:03:52;;;;;;;1.50;0.90;;;;;;;;;;702729;27;1923;-66
2024/02/24 02:04:12;;;;;;;1.50;0.80;;;;;;;;;;704760;27;935;-64
2024/02/24 02:04:33;;;;;;;1.40;0.80;;;;;;;;;;701103;28;4365;-63
2024/02/24 02:04:53;;;;;;;2.00;0.80;;;;;;;;;;703554;27;1038;-63
2024/02/24 02:05:13;;;;;;;2.60;0.90;;;;;;;;;;705581;27;805;-63
2024/02/24 02:05:34;;;;;;;2.42;1.00;;;;;;;;;;704924;27;872;-63
2024/02/24 02:05:54;;;;;;;1.73;0.87;;;;;;;;;;701419;27;1437;-66
2024/02/24 02:06:15;;;;;;;1.27;0.73;;;;;;;;;;702659;28;1065;-63
2024/02/24 02:06:36;;;;;;;1.60;0.80;;;;;;;;;;702524;27;1339;-63
2024/02/24 02:06:57;;;;;;;1.42;0.90;;;;;;;;;;703216;27;2071;-62
2024/02/24 02:07:18;;;;;;;1.95;0.90;;;;;;;;;;703322;28;4582;-62